sensor_id;sensor_type;location;lat;lon;timestamp;P1;durP1;ratioP1;P2;durP2;ratioP2
77948;SDS011;67146;51.236;-0.336;2023-04-19T00:00:46;31.77;;;12.82;;
77948;SDS011;67146;51.236;-0.336;2023-04-19T00:03:11;32.53;;;13.10;;
77948;SDS011;67146;51.236;-0.336;2023-04-19T00:05:38;24.75;;;11.77;;
77948;SDS011;67146;51.236;-0.336;2023-04-19T00:08:04;30.17;;;12.43;;
77948;SDS011;67146;51.236;-0.336;2023-04-19T00:10:29;31.42;;;12.85;;
77948;SDS011;67146;51.236;-0.336;2023-04-19T00:12:55;26.85;;;11.85;;
77948;SDS011;67146;51.236;-0.336;2023-04-19T00:15:20;28.00;;;11.80;;
77948;SDS011;67146;51.236;-0.336;2023-04-19T00:17:46;34.67;;;12.03;;
77948;SDS011;67146;51.236;-0.336;2023-04-19T00:20:12;31.52;;;12.65;;
77948;SDS011;67146;51.236;-0.336;2023-04-19T00:22:38;28.38;;;11.95;;
77948;SDS011;67146;51.236;-0.336;2023-04-19T00:25:03;37.35;;;12.52;;
77948;SDS011;67146;51.236;-0.336;2023-04-19T00:27:29;33.63;;;13.82;;
77948;SDS011;67146;51.236;-0.336;2023-04-19T00:29:55;31.25;;;12.45;;
77948;SDS011;67146;51.236;-0.336;2023-04-19T00:32:21;33.17;;;13.95;;
77948;SDS011;67146;51.236;-0.336;2023-04-19T00:34:47;32.05;;;13.48;;
77948;SDS011;67146;51.236;-0.336;2023-04-19T00:37:12;30.57;;;12.67;;
77948;SDS011;67146;51.236;-0.336;2023-04-19T00:39:38;31.13;;;13.38;;
77948;SDS011;67146;51.236;-0.336;2023-04-19T00:42:04;29.00;;;13.55;;
77948;SDS011;67146;51.236;-0.336;2023-04-19T00:44:29;29.70;;;12.13;;
77948;SDS011;67146;51.236;-0.336;2023-04-19T00:46:55;30.67;;;12.48;;
77948;SDS011;67146;51.236;-0.336;2023-04-19T00:49:20;31.30;;;13.82;;
77948;SDS011;67146;51.236;-0.336;2023-04-19T00:51:47;34.83;;;14.52;;
77948;SDS011;67146;51.236;-0.336;2023-04-19T00:54:14;32.85;;;13.70;;
77948;SDS011;67146;51.236;-0.336;2023-04-19T00:56:39;30.55;;;15.07;;
77948;SDS011;67146;51.236;-0.336;2023-04-19T00:59:05;32.42;;;12.77;;
77948;SDS011;67146;51.236;-0.336;2023-04-19T01:01:30;36.47;;;13.82;;
77948;SDS011;67146;51.236;-0.336;2023-04-19T01:03:56;30.73;;;13.23;;
77948;SDS011;67146;51.236;-0.336;2023-04-19T01:06:21;33.38;;;14.27;;
77948;SDS011;67146;51.236;-0.336;2023-04-19T01:08:47;29.83;;;13.68;;
77948;SDS011;67146;51.236;-0.336;2023-04-19T01:11:12;33.37;;;14.33;;
77948;SDS011;67146;51.236;-0.336;2023-04-19T01:13:38;36.07;;;15.70;;
77948;SDS011;67146;51.236;-0.336;2023-04-19T01:16:03;32.70;;;13.57;;
77948;SDS011;67146;51.236;-0.336;2023-04-19T01:18:29;36.47;;;13.93;;
77948;SDS011;67146;51.236;-0.336;2023-04-19T01:21:01;37.63;;;14.48;;
77948;SDS011;67146;51.236;-0.336;2023-04-19T01:23:26;36.78;;;14.63;;
77948;SDS011;67146;51.236;-0.336;2023-04-19T01:25:51;35.23;;;14.27;;
77948;SDS011;67146;51.236;-0.336;2023-04-19T01:28:17;35.40;;;14.17;;
77948;SDS011;67146;51.236;-0.336;2023-04-19T01:30:42;35.63;;;14.83;;
77948;SDS011;67146;51.236;-0.336;2023-04-19T01:33:07;36.63;;;14.80;;
77948;SDS011;67146;51.236;-0.336;2023-04-19T01:35:33;34.37;;;15.10;;
77948;SDS011;67146;51.236;-0.336;2023-04-19T01:37:58;38.87;;;14.60;;
77948;SDS011;67146;51.236;-0.336;2023-04-19T01:40:24;38.67;;;16.00;;
77948;SDS011;67146;51.236;-0.336;2023-04-19T01:42:50;35.70;;;15.00;;
77948;SDS011;67146;51.236;-0.336;2023-04-19T01:45:15;33.72;;;15.32;;
77948;SDS011;67146;51.236;-0.336;2023-04-19T01:47:41;36.70;;;14.15;;
77948;SDS011;67146;51.236;-0.336;2023-04-19T01:50:06;41.53;;;15.50;;
77948;SDS011;67146;51.236;-0.336;2023-04-19T01:52:32;38.95;;;14.18;;
77948;SDS011;67146;51.236;-0.336;2023-04-19T01:54:57;31.23;;;13.87;;
77948;SDS011;67146;51.236;-0.336;2023-04-19T01:57:22;34.10;;;14.82;;
77948;SDS011;67146;51.236;-0.336;2023-04-19T01:59:48;35.97;;;14.60;;
77948;SDS011;67146;51.236;-0.336;2023-04-19T02:02:14;30.08;;;13.43;;
77948;SDS011;67146;51.236;-0.336;2023-04-19T02:04:39;33.25;;;13.50;;
77948;SDS011;67146;51.236;-0.336;2023-04-19T02:07:05;33.08;;;12.98;;
77948;SDS011;67146;51.236;-0.336;2023-04-19T02:09:33;31.58;;;13.85;;
77948;SDS011;67146;51.236;-0.336;2023-04-19T02:11:59;33.90;;;14.30;;
77948;SDS011;67146;51.236;-0.336;2023-04-19T02:14:25;32.20;;;13.93;;
77948;SDS011;67146;51.236;-0.336;2023-04-19T02:16:50;34.73;;;13.63;;
77948;SDS011;67146;51.236;-0.336;2023-04-19T02:19:15;35.92;;;13.00;;
77948;SDS011;67146;51.236;-0.336;2023-04-19T02:21:41;36.15;;;13.77;;
77948;SDS011;67146;51.236;-0.336;2023-04-19T02:24:06;34.57;;;13.63;;
77948;SDS011;67146;51.236;-0.336;2023-04-19T02:26:32;31.85;;;13.07;;
77948;SDS011;67146;51.236;-0.336;2023-04-19T02:28:57;36.25;;;14.85;;
77948;SDS011;67146;51.236;-0.336;2023-04-19T02:31:23;32.65;;;14.20;;
77948;SDS011;67146;51.236;-0.336;2023-04-19T02:33:48;36.30;;;14.73;;
77948;SDS011;67146;51.236;-0.336;2023-04-19T02:36:13;37.42;;;15.10;;
77948;SDS011;67146;51.236;-0.336;2023-04-19T02:38:39;29.65;;;12.82;;
77948;SDS011;67146;51.236;-0.336;2023-04-19T02:41:04;38.58;;;13.98;;
77948;SDS011;67146;51.236;-0.336;2023-04-19T02:43:30;35.92;;;16.77;;
77948;SDS011;67146;51.236;-0.336;2023-04-19T02:45:55;35.58;;;14.57;;
77948;SDS011;67146;51.236;-0.336;2023-04-19T02:48:20;34.17;;;14.60;;
77948;SDS011;67146;51.236;-0.336;2023-04-19T02:50:46;31.10;;;13.93;;
77948;SDS011;67146;51.236;-0.336;2023-04-19T02:53:11;33.50;;;14.63;;
77948;SDS011;67146;51.236;-0.336;2023-04-19T02:55:37;34.90;;;15.40;;
77948;SDS011;67146;51.236;-0.336;2023-04-19T02:58:02;35.38;;;14.10;;
77948;SDS011;67146;51.236;-0.336;2023-04-19T03:00:27;34.83;;;14.70;;
77948;SDS011;67146;51.236;-0.336;2023-04-19T03:02:53;32.45;;;14.57;;
77948;SDS011;67146;51.236;-0.336;2023-04-19T03:05:20;29.70;;;13.60;;
77948;SDS011;67146;51.236;-0.336;2023-04-19T03:07:45;33.28;;;14.57;;
77948;SDS011;67146;51.236;-0.336;2023-04-19T03:10:11;34.75;;;15.40;;
77948;SDS011;67146;51.236;-0.336;2023-04-19T03:12:36;35.50;;;14.93;;
77948;SDS011;67146;51.236;-0.336;2023-04-19T03:15:01;32.95;;;14.45;;
77948;SDS011;67146;51.236;-0.336;2023-04-19T03:17:27;33.88;;;14.50;;
77948;SDS011;67146;51.236;-0.336;2023-04-19T03:19:52;34.95;;;15.35;;
77948;SDS011;67146;51.236;-0.336;2023-04-19T03:22:18;34.05;;;15.57;;
77948;SDS011;67146;51.236;-0.336;2023-04-19T03:24:43;36.90;;;15.60;;
77948;SDS011;67146;51.236;-0.336;2023-04-19T03:27:08;31.70;;;14.20;;
77948;SDS011;67146;51.236;-0.336;2023-04-19T03:29:34;38.80;;;16.40;;
77948;SDS011;67146;51.236;-0.336;2023-04-19T03:32:00;36.00;;;15.07;;
77948;SDS011;67146;51.236;-0.336;2023-04-19T03:34:25;37.22;;;17.25;;
77948;SDS011;67146;51.236;-0.336;2023-04-19T03:36:51;36.38;;;16.75;;
77948;SDS011;67146;51.236;-0.336;2023-04-19T03:39:16;36.87;;;16.70;;
77948;SDS011;67146;51.236;-0.336;2023-04-19T03:41:41;40.30;;;18.27;;
77948;SDS011;67146;51.236;-0.336;2023-04-19T03:44:07;38.85;;;17.45;;
77948;SDS011;67146;51.236;-0.336;2023-04-19T03:46:32;41.27;;;18.43;;
77948;SDS011;67146;51.236;-0.336;2023-04-19T03:48:58;43.17;;;17.87;;
77948;SDS011;67146;51.236;-0.336;2023-04-19T03:51:23;37.95;;;17.30;;
77948;SDS011;67146;51.236;-0.336;2023-04-19T03:53:49;40.53;;;18.75;;
77948;SDS011;67146;51.236;-0.336;2023-04-19T03:56:14;38.47;;;17.77;;
77948;SDS011;67146;51.236;-0.336;2023-04-19T03:58:39;40.63;;;18.20;;
77948;SDS011;67146;51.236;-0.336;2023-04-19T04:01:05;45.58;;;18.23;;
77948;SDS011;67146;51.236;-0.336;2023-04-19T04:03:32;40.00;;;18.00;;
77948;SDS011;67146;51.236;-0.336;2023-04-19T04:05:57;40.00;;;19.05;;
77948;SDS011;67146;51.236;-0.336;2023-04-19T04:08:23;43.93;;;19.77;;
77948;SDS011;67146;51.236;-0.336;2023-04-19T04:10:48;39.70;;;18.00;;
77948;SDS011;67146;51.236;-0.336;2023-04-19T04:13:13;46.60;;;18.73;;
77948;SDS011;67146;51.236;-0.336;2023-04-19T04:15:39;46.92;;;20.27;;
77948;SDS011;67146;51.236;-0.336;2023-04-19T04:18:04;50.57;;;21.10;;
77948;SDS011;67146;51.236;-0.336;2023-04-19T04:20:30;44.58;;;19.85;;
77948;SDS011;67146;51.236;-0.336;2023-04-19T04:22:55;49.55;;;21.08;;
77948;SDS011;67146;51.236;-0.336;2023-04-19T04:25:21;50.13;;;19.45;;
77948;SDS011;67146;51.236;-0.336;2023-04-19T04:27:49;41.42;;;21.05;;
77948;SDS011;67146;51.236;-0.336;2023-04-19T04:30:15;44.80;;;19.58;;
77948;SDS011;67146;51.236;-0.336;2023-04-19T04:32:41;41.83;;;19.20;;
77948;SDS011;67146;51.236;-0.336;2023-04-19T04:35:07;45.92;;;21.08;;
77948;SDS011;67146;51.236;-0.336;2023-04-19T04:37:33;45.90;;;19.80;;
77948;SDS011;67146;51.236;-0.336;2023-04-19T04:39:59;41.78;;;20.52;;
77948;SDS011;67146;51.236;-0.336;2023-04-19T04:42:25;45.83;;;20.20;;
77948;SDS011;67146;51.236;-0.336;2023-04-19T04:44:51;48.08;;;21.25;;
77948;SDS011;67146;51.236;-0.336;2023-04-19T04:47:17;45.63;;;19.60;;
77948;SDS011;67146;51.236;-0.336;2023-04-19T04:49:42;48.20;;;21.02;;
77948;SDS011;67146;51.236;-0.336;2023-04-19T04:52:08;49.37;;;21.20;;
77948;SDS011;67146;51.236;-0.336;2023-04-19T04:54:33;49.65;;;20.70;;
77948;SDS011;67146;51.236;-0.336;2023-04-19T04:56:59;44.22;;;22.02;;
77948;SDS011;67146;51.236;-0.336;2023-04-19T04:59:25;48.88;;;21.17;;
77948;SDS011;67146;51.236;-0.336;2023-04-19T05:01:51;45.58;;;20.83;;
77948;SDS011;67146;51.236;-0.336;2023-04-19T05:04:17;52.53;;;22.45;;
77948;SDS011;67146;51.236;-0.336;2023-04-19T05:06:42;52.63;;;23.17;;
77948;SDS011;67146;51.236;-0.336;2023-04-19T05:09:08;55.75;;;25.33;;
77948;SDS011;67146;51.236;-0.336;2023-04-19T05:11:34;46.13;;;21.30;;
77948;SDS011;67146;51.236;-0.336;2023-04-19T05:13:59;46.53;;;22.52;;
77948;SDS011;67146;51.236;-0.336;2023-04-19T05:16:25;50.17;;;22.63;;
77948;SDS011;67146;51.236;-0.336;2023-04-19T05:18:51;53.55;;;23.70;;
77948;SDS011;67146;51.236;-0.336;2023-04-19T05:21:16;47.75;;;22.77;;
77948;SDS011;67146;51.236;-0.336;2023-04-19T05:23:42;46.80;;;22.10;;
77948;SDS011;67146;51.236;-0.336;2023-04-19T05:26:07;51.33;;;22.92;;
77948;SDS011;67146;51.236;-0.336;2023-04-19T05:28:36;46.03;;;22.02;;
77948;SDS011;67146;51.236;-0.336;2023-04-19T05:31:02;48.63;;;23.38;;
77948;SDS011;67146;51.236;-0.336;2023-04-19T05:33:27;46.55;;;22.00;;
77948;SDS011;67146;51.236;-0.336;2023-04-19T05:35:53;46.60;;;21.52;;
77948;SDS011;67146;51.236;-0.336;2023-04-19T05:38:18;49.80;;;22.10;;
77948;SDS011;67146;51.236;-0.336;2023-04-19T05:40:43;45.00;;;19.85;;
77948;SDS011;67146;51.236;-0.336;2023-04-19T05:43:09;45.13;;;22.33;;
77948;SDS011;67146;51.236;-0.336;2023-04-19T05:45:34;52.05;;;22.27;;
77948;SDS011;67146;51.236;-0.336;2023-04-19T05:48:00;49.13;;;20.95;;
77948;SDS011;67146;51.236;-0.336;2023-04-19T05:50:25;53.67;;;22.77;;
77948;SDS011;67146;51.236;-0.336;2023-04-19T05:52:50;46.97;;;20.73;;
77948;SDS011;67146;51.236;-0.336;2023-04-19T05:55:16;41.30;;;22.27;;
77948;SDS011;67146;51.236;-0.336;2023-04-19T05:57:42;43.85;;;20.33;;
77948;SDS011;67146;51.236;-0.336;2023-04-19T06:00:07;40.60;;;19.65;;
77948;SDS011;67146;51.236;-0.336;2023-04-19T06:02:36;39.50;;;19.20;;
77948;SDS011;67146;51.236;-0.336;2023-04-19T06:05:02;41.78;;;19.88;;
77948;SDS011;67146;51.236;-0.336;2023-04-19T06:07:30;43.42;;;20.80;;
77948;SDS011;67146;51.236;-0.336;2023-04-19T06:09:55;39.13;;;19.03;;
77948;SDS011;67146;51.236;-0.336;2023-04-19T06:12:21;36.63;;;18.30;;
77948;SDS011;67146;51.236;-0.336;2023-04-19T06:14:46;36.27;;;18.20;;
77948;SDS011;67146;51.236;-0.336;2023-04-19T06:17:12;36.60;;;18.23;;
77948;SDS011;67146;51.236;-0.336;2023-04-19T06:19:38;34.55;;;17.67;;
77948;SDS011;67146;51.236;-0.336;2023-04-19T06:22:03;36.33;;;18.25;;
77948;SDS011;67146;51.236;-0.336;2023-04-19T06:24:29;33.53;;;16.73;;
77948;SDS011;67146;51.236;-0.336;2023-04-19T06:26:55;34.85;;;17.92;;
77948;SDS011;67146;51.236;-0.336;2023-04-19T06:29:21;34.55;;;17.67;;
77948;SDS011;67146;51.236;-0.336;2023-04-19T06:31:47;29.48;;;16.75;;
77948;SDS011;67146;51.236;-0.336;2023-04-19T06:34:13;30.40;;;14.90;;
77948;SDS011;67146;51.236;-0.336;2023-04-19T06:36:38;32.53;;;16.52;;
77948;SDS011;67146;51.236;-0.336;2023-04-19T06:39:03;32.85;;;15.70;;
77948;SDS011;67146;51.236;-0.336;2023-04-19T06:41:29;31.98;;;15.88;;
77948;SDS011;67146;51.236;-0.336;2023-04-19T06:43:55;29.00;;;14.88;;
77948;SDS011;67146;51.236;-0.336;2023-04-19T06:46:20;28.60;;;15.70;;
77948;SDS011;67146;51.236;-0.336;2023-04-19T06:48:45;28.50;;;16.02;;
77948;SDS011;67146;51.236;-0.336;2023-04-19T06:51:12;31.67;;;14.98;;
77948;SDS011;67146;51.236;-0.336;2023-04-19T06:53:37;29.33;;;14.87;;
77948;SDS011;67146;51.236;-0.336;2023-04-19T06:56:03;26.90;;;14.00;;
77948;SDS011;67146;51.236;-0.336;2023-04-19T06:58:31;25.70;;;13.75;;
77948;SDS011;67146;51.236;-0.336;2023-04-19T07:00:56;26.17;;;13.98;;
77948;SDS011;67146;51.236;-0.336;2023-04-19T07:03:22;32.50;;;15.27;;
77948;SDS011;67146;51.236;-0.336;2023-04-19T07:05:47;26.77;;;15.02;;
77948;SDS011;67146;51.236;-0.336;2023-04-19T07:08:13;26.67;;;13.40;;
77948;SDS011;67146;51.236;-0.336;2023-04-19T07:10:39;28.58;;;16.00;;
77948;SDS011;67146;51.236;-0.336;2023-04-19T07:13:04;26.13;;;14.73;;
77948;SDS011;67146;51.236;-0.336;2023-04-19T07:15:29;28.77;;;13.75;;
77948;SDS011;67146;51.236;-0.336;2023-04-19T07:17:55;27.30;;;13.55;;
77948;SDS011;67146;51.236;-0.336;2023-04-19T07:20:20;31.43;;;17.23;;
77948;SDS011;67146;51.236;-0.336;2023-04-19T07:22:46;29.42;;;16.15;;
77948;SDS011;67146;51.236;-0.336;2023-04-19T07:25:11;31.60;;;16.73;;
77948;SDS011;67146;51.236;-0.336;2023-04-19T07:27:37;32.00;;;14.73;;
77948;SDS011;67146;51.236;-0.336;2023-04-19T07:30:02;29.42;;;14.65;;
77948;SDS011;67146;51.236;-0.336;2023-04-19T07:32:28;27.95;;;15.68;;
77948;SDS011;67146;51.236;-0.336;2023-04-19T07:34:55;30.48;;;15.30;;
77948;SDS011;67146;51.236;-0.336;2023-04-19T07:37:20;30.05;;;13.85;;
77948;SDS011;67146;51.236;-0.336;2023-04-19T07:39:46;28.90;;;14.38;;
77948;SDS011;67146;51.236;-0.336;2023-04-19T07:42:11;26.23;;;14.73;;
77948;SDS011;67146;51.236;-0.336;2023-04-19T07:44:36;27.33;;;15.20;;
77948;SDS011;67146;51.236;-0.336;2023-04-19T07:47:02;26.73;;;14.70;;
77948;SDS011;67146;51.236;-0.336;2023-04-19T07:49:29;26.88;;;14.77;;
77948;SDS011;67146;51.236;-0.336;2023-04-19T07:51:58;27.95;;;14.70;;
77948;SDS011;67146;51.236;-0.336;2023-04-19T07:54:26;27.15;;;14.90;;
77948;SDS011;67146;51.236;-0.336;2023-04-19T07:56:52;30.58;;;13.65;;
77948;SDS011;67146;51.236;-0.336;2023-04-19T07:59:17;27.63;;;14.77;;
77948;SDS011;67146;51.236;-0.336;2023-04-19T08:01:43;25.50;;;15.80;;
77948;SDS011;67146;51.236;-0.336;2023-04-19T08:04:08;25.93;;;14.27;;
77948;SDS011;67146;51.236;-0.336;2023-04-19T08:06:34;27.30;;;14.02;;
77948;SDS011;67146;51.236;-0.336;2023-04-19T08:09:01;25.70;;;12.85;;
77948;SDS011;67146;51.236;-0.336;2023-04-19T08:11:27;25.48;;;13.65;;
77948;SDS011;67146;51.236;-0.336;2023-04-19T08:13:53;25.47;;;16.00;;
77948;SDS011;67146;51.236;-0.336;2023-04-19T08:16:18;24.05;;;12.82;;
77948;SDS011;67146;51.236;-0.336;2023-04-19T08:18:43;23.98;;;12.80;;
77948;SDS011;67146;51.236;-0.336;2023-04-19T08:21:10;27.23;;;13.48;;
77948;SDS011;67146;51.236;-0.336;2023-04-19T08:23:35;24.25;;;12.18;;
77948;SDS011;67146;51.236;-0.336;2023-04-19T08:26:01;24.27;;;12.63;;
77948;SDS011;67146;51.236;-0.336;2023-04-19T08:28:26;22.70;;;11.60;;
77948;SDS011;67146;51.236;-0.336;2023-04-19T08:30:51;32.03;;;12.33;;
77948;SDS011;67146;51.236;-0.336;2023-04-19T08:33:17;25.05;;;12.25;;
77948;SDS011;67146;51.236;-0.336;2023-04-19T08:35:42;25.37;;;12.67;;
77948;SDS011;67146;51.236;-0.336;2023-04-19T08:38:09;23.67;;;12.02;;
77948;SDS011;67146;51.236;-0.336;2023-04-19T08:40:34;24.38;;;12.98;;
77948;SDS011;67146;51.236;-0.336;2023-04-19T08:43:04;22.60;;;11.95;;
77948;SDS011;67146;51.236;-0.336;2023-04-19T08:45:30;24.67;;;11.40;;
77948;SDS011;67146;51.236;-0.336;2023-04-19T08:47:56;22.02;;;11.07;;
77948;SDS011;67146;51.236;-0.336;2023-04-19T08:50:22;19.75;;;10.15;;
77948;SDS011;67146;51.236;-0.336;2023-04-19T08:52:48;22.52;;;11.23;;
77948;SDS011;67146;51.236;-0.336;2023-04-19T08:55:13;21.17;;;10.95;;
77948;SDS011;67146;51.236;-0.336;2023-04-19T08:57:39;23.00;;;11.18;;
77948;SDS011;67146;51.236;-0.336;2023-04-19T09:00:05;23.98;;;11.35;;
77948;SDS011;67146;51.236;-0.336;2023-04-19T09:02:48;22.48;;;12.05;;
77948;SDS011;67146;51.236;-0.336;2023-04-19T09:05:15;24.90;;;10.13;;
77948;SDS011;67146;51.236;-0.336;2023-04-19T09:07:42;23.35;;;11.43;;
77948;SDS011;67146;51.236;-0.336;2023-04-19T09:10:09;19.35;;;10.55;;
77948;SDS011;67146;51.236;-0.336;2023-04-19T09:12:36;21.77;;;10.25;;
77948;SDS011;67146;51.236;-0.336;2023-04-19T09:15:02;19.35;;;9.93;;
77948;SDS011;67146;51.236;-0.336;2023-04-19T09:17:29;22.83;;;10.15;;
77948;SDS011;67146;51.236;-0.336;2023-04-19T09:19:55;19.58;;;10.95;;
77948;SDS011;67146;51.236;-0.336;2023-04-19T09:22:21;20.63;;;10.52;;
77948;SDS011;67146;51.236;-0.336;2023-04-19T09:24:46;18.70;;;10.05;;
77948;SDS011;67146;51.236;-0.336;2023-04-19T09:27:12;18.23;;;9.02;;
77948;SDS011;67146;51.236;-0.336;2023-04-19T09:29:39;17.85;;;9.63;;
77948;SDS011;67146;51.236;-0.336;2023-04-19T09:32:05;19.53;;;10.43;;
77948;SDS011;67146;51.236;-0.336;2023-04-19T09:34:30;20.47;;;8.97;;
77948;SDS011;67146;51.236;-0.336;2023-04-19T09:36:55;15.98;;;9.15;;
77948;SDS011;67146;51.236;-0.336;2023-04-19T09:39:30;19.23;;;9.60;;
77948;SDS011;67146;51.236;-0.336;2023-04-19T09:41:56;18.20;;;8.93;;
77948;SDS011;67146;51.236;-0.336;2023-04-19T09:44:22;17.40;;;8.73;;
77948;SDS011;67146;51.236;-0.336;2023-04-19T09:46:47;19.52;;;9.50;;
77948;SDS011;67146;51.236;-0.336;2023-04-19T09:49:14;25.73;;;9.98;;
77948;SDS011;67146;51.236;-0.336;2023-04-19T09:51:51;17.08;;;8.25;;
77948;SDS011;67146;51.236;-0.336;2023-04-19T09:54:18;17.92;;;10.05;;
77948;SDS011;67146;51.236;-0.336;2023-04-19T09:56:45;16.98;;;8.48;;
77948;SDS011;67146;51.236;-0.336;2023-04-19T09:59:11;17.48;;;8.98;;
77948;SDS011;67146;51.236;-0.336;2023-04-19T10:01:46;17.67;;;9.40;;
77948;SDS011;67146;51.236;-0.336;2023-04-19T10:04:14;18.33;;;8.45;;
77948;SDS011;67146;51.236;-0.336;2023-04-19T10:06:49;16.95;;;8.75;;
77948;SDS011;67146;51.236;-0.336;2023-04-19T10:09:19;17.77;;;9.27;;
77948;SDS011;67146;51.236;-0.336;2023-04-19T10:11:49;17.33;;;9.18;;
77948;SDS011;67146;51.236;-0.336;2023-04-19T10:14:15;16.45;;;8.15;;
77948;SDS011;67146;51.236;-0.336;2023-04-19T10:16:41;16.83;;;8.38;;
77948;SDS011;67146;51.236;-0.336;2023-04-19T10:19:08;16.57;;;8.37;;
77948;SDS011;67146;51.236;-0.336;2023-04-19T10:21:35;17.63;;;8.55;;
77948;SDS011;67146;51.236;-0.336;2023-04-19T10:24:02;17.00;;;8.52;;
77948;SDS011;67146;51.236;-0.336;2023-04-19T10:26:28;15.80;;;8.43;;
77948;SDS011;67146;51.236;-0.336;2023-04-19T10:28:54;18.50;;;8.45;;
77948;SDS011;67146;51.236;-0.336;2023-04-19T10:31:24;17.80;;;8.13;;
77948;SDS011;67146;51.236;-0.336;2023-04-19T10:33:50;16.58;;;8.27;;
77948;SDS011;67146;51.236;-0.336;2023-04-19T10:36:15;13.40;;;6.90;;
77948;SDS011;67146;51.236;-0.336;2023-04-19T10:38:45;15.63;;;7.18;;
77948;SDS011;67146;51.236;-0.336;2023-04-19T10:41:17;15.10;;;7.10;;
77948;SDS011;67146;51.236;-0.336;2023-04-19T10:43:46;17.10;;;7.60;;
77948;SDS011;67146;51.236;-0.336;2023-04-19T10:46:13;19.00;;;7.90;;
77948;SDS011;67146;51.236;-0.336;2023-04-19T10:48:49;16.65;;;8.90;;
77948;SDS011;67146;51.236;-0.336;2023-04-19T10:51:37;15.30;;;7.80;;
77948;SDS011;67146;51.236;-0.336;2023-04-19T10:54:08;16.05;;;7.20;;
77948;SDS011;67146;51.236;-0.336;2023-04-19T10:57:01;13.35;;;6.38;;
77948;SDS011;67146;51.236;-0.336;2023-04-19T10:59:38;16.30;;;6.75;;
77948;SDS011;67146;51.236;-0.336;2023-04-19T11:02:26;15.95;;;7.60;;
77948;SDS011;67146;51.236;-0.336;2023-04-19T11:07:17;17.35;;;7.60;;
77948;SDS011;67146;51.236;-0.336;2023-04-19T11:09:44;14.85;;;7.65;;
77948;SDS011;67146;51.236;-0.336;2023-04-19T11:12:14;14.25;;;7.05;;
77948;SDS011;67146;51.236;-0.336;2023-04-19T11:14:41;12.30;;;6.50;;
77948;SDS011;67146;51.236;-0.336;2023-04-19T11:17:14;12.52;;;6.32;;
77948;SDS011;67146;51.236;-0.336;2023-04-19T11:19:44;15.40;;;6.65;;
77948;SDS011;67146;51.236;-0.336;2023-04-19T11:22:17;12.80;;;5.80;;
77948;SDS011;67146;51.236;-0.336;2023-04-19T11:24:45;11.43;;;5.70;;
77948;SDS011;67146;51.236;-0.336;2023-04-19T11:27:12;12.93;;;5.82;;
77948;SDS011;67146;51.236;-0.336;2023-04-19T11:29:37;10.48;;;5.22;;
77948;SDS011;67146;51.236;-0.336;2023-04-19T11:32:03;12.10;;;5.97;;
77948;SDS011;67146;51.236;-0.336;2023-04-19T11:34:28;12.02;;;5.15;;
77948;SDS011;67146;51.236;-0.336;2023-04-19T11:36:54;10.15;;;4.88;;
77948;SDS011;67146;51.236;-0.336;2023-04-19T11:39:19;9.63;;;4.93;;
77948;SDS011;67146;51.236;-0.336;2023-04-19T11:41:45;12.00;;;5.18;;
77948;SDS011;67146;51.236;-0.336;2023-04-19T11:46:39;10.15;;;5.00;;
77948;SDS011;67146;51.236;-0.336;2023-04-19T11:49:05;12.48;;;5.03;;
77948;SDS011;67146;51.236;-0.336;2023-04-19T11:51:31;9.57;;;4.78;;
77948;SDS011;67146;51.236;-0.336;2023-04-19T11:53:56;9.30;;;3.97;;
77948;SDS011;67146;51.236;-0.336;2023-04-19T11:56:21;13.55;;;5.57;;
77948;SDS011;67146;51.236;-0.336;2023-04-19T11:58:47;13.15;;;6.22;;
77948;SDS011;67146;51.236;-0.336;2023-04-19T12:01:19;12.80;;;4.95;;
77948;SDS011;67146;51.236;-0.336;2023-04-19T12:03:46;14.73;;;5.47;;
77948;SDS011;67146;51.236;-0.336;2023-04-19T12:06:15;10.52;;;5.07;;
77948;SDS011;67146;51.236;-0.336;2023-04-19T12:08:44;11.05;;;4.82;;
77948;SDS011;67146;51.236;-0.336;2023-04-19T12:11:11;10.13;;;4.47;;
77948;SDS011;67146;51.236;-0.336;2023-04-19T12:13:37;11.25;;;4.70;;
77948;SDS011;67146;51.236;-0.336;2023-04-19T12:16:02;11.27;;;4.82;;
77948;SDS011;67146;51.236;-0.336;2023-04-19T12:18:41;11.60;;;4.45;;
77948;SDS011;67146;51.236;-0.336;2023-04-19T12:21:22;9.88;;;4.30;;
77948;SDS011;67146;51.236;-0.336;2023-04-19T12:23:55;13.57;;;4.43;;
77948;SDS011;67146;51.236;-0.336;2023-04-19T12:26:21;9.93;;;4.32;;
77948;SDS011;67146;51.236;-0.336;2023-04-19T12:28:47;9.38;;;4.43;;
77948;SDS011;67146;51.236;-0.336;2023-04-19T12:31:12;9.80;;;4.07;;
77948;SDS011;67146;51.236;-0.336;2023-04-19T12:33:37;10.57;;;5.03;;
77948;SDS011;67146;51.236;-0.336;2023-04-19T12:36:03;11.07;;;4.50;;
77948;SDS011;67146;51.236;-0.336;2023-04-19T12:38:28;11.85;;;4.53;;
77948;SDS011;67146;51.236;-0.336;2023-04-19T12:40:54;9.37;;;5.00;;
77948;SDS011;67146;51.236;-0.336;2023-04-19T12:43:19;10.82;;;5.20;;
77948;SDS011;67146;51.236;-0.336;2023-04-19T12:45:45;10.77;;;5.45;;
77948;SDS011;67146;51.236;-0.336;2023-04-19T12:48:10;11.77;;;5.70;;
77948;SDS011;67146;51.236;-0.336;2023-04-19T12:50:35;11.77;;;5.30;;
77948;SDS011;67146;51.236;-0.336;2023-04-19T12:53:02;11.00;;;4.72;;
77948;SDS011;67146;51.236;-0.336;2023-04-19T12:55:28;11.77;;;5.22;;
77948;SDS011;67146;51.236;-0.336;2023-04-19T12:57:53;13.60;;;5.70;;
77948;SDS011;67146;51.236;-0.336;2023-04-19T13:00:18;13.17;;;5.13;;
77948;SDS011;67146;51.236;-0.336;2023-04-19T13:02:44;13.75;;;5.20;;
77948;SDS011;67146;51.236;-0.336;2023-04-19T13:05:09;10.43;;;4.10;;
77948;SDS011;67146;51.236;-0.336;2023-04-19T13:07:36;11.30;;;4.57;;
77948;SDS011;67146;51.236;-0.336;2023-04-19T13:10:02;9.18;;;4.10;;
77948;SDS011;67146;51.236;-0.336;2023-04-19T13:12:27;12.13;;;4.70;;
77948;SDS011;67146;51.236;-0.336;2023-04-19T13:14:53;9.20;;;4.20;;
77948;SDS011;67146;51.236;-0.336;2023-04-19T13:17:18;9.30;;;4.30;;
77948;SDS011;67146;51.236;-0.336;2023-04-19T13:19:44;10.57;;;4.22;;
77948;SDS011;67146;51.236;-0.336;2023-04-19T13:22:10;9.90;;;3.90;;
77948;SDS011;67146;51.236;-0.336;2023-04-19T13:27:03;8.77;;;3.60;;
77948;SDS011;67146;51.236;-0.336;2023-04-19T13:29:29;10.27;;;3.53;;
77948;SDS011;67146;51.236;-0.336;2023-04-19T13:31:55;9.93;;;3.35;;
77948;SDS011;67146;51.236;-0.336;2023-04-19T13:34:22;8.63;;;3.38;;
77948;SDS011;67146;51.236;-0.336;2023-04-19T13:36:47;9.13;;;2.80;;
77948;SDS011;67146;51.236;-0.336;2023-04-19T13:39:16;8.80;;;3.58;;
77948;SDS011;67146;51.236;-0.336;2023-04-19T13:41:41;9.15;;;3.55;;
77948;SDS011;67146;51.236;-0.336;2023-04-19T13:44:07;9.70;;;3.25;;
77948;SDS011;67146;51.236;-0.336;2023-04-19T13:46:32;8.57;;;3.63;;
77948;SDS011;67146;51.236;-0.336;2023-04-19T13:48:57;8.37;;;3.60;;
77948;SDS011;67146;51.236;-0.336;2023-04-19T13:51:23;7.85;;;3.10;;
77948;SDS011;67146;51.236;-0.336;2023-04-19T13:53:48;10.70;;;3.17;;
77948;SDS011;67146;51.236;-0.336;2023-04-19T13:56:14;7.95;;;3.10;;
77948;SDS011;67146;51.236;-0.336;2023-04-19T13:58:39;8.70;;;4.23;;
77948;SDS011;67146;51.236;-0.336;2023-04-19T14:01:05;6.43;;;2.40;;
77948;SDS011;67146;51.236;-0.336;2023-04-19T14:03:30;8.55;;;2.65;;
77948;SDS011;67146;51.236;-0.336;2023-04-19T14:05:56;7.43;;;2.72;;
77948;SDS011;67146;51.236;-0.336;2023-04-19T14:08:21;10.23;;;3.42;;
77948;SDS011;67146;51.236;-0.336;2023-04-19T14:10:47;8.03;;;3.00;;
77948;SDS011;67146;51.236;-0.336;2023-04-19T14:13:13;9.95;;;3.90;;
77948;SDS011;67146;51.236;-0.336;2023-04-19T14:15:39;8.13;;;3.03;;